Mountain Home, Arkansas
Current Conditions -  °F | °C
As of 11:53 AM on Saturday 20 Dec 2014 (Local Time) from KBPK Reporting Station
Haze Haze  
Wind Chill: 41°   Ceiling: 700
Heat Index: 41°   Visibility: 4mi
Dew Point: 38°   Wind: 3mph
Humidity: 89%   Direction: 130°SE
Pressure: 30.22"   Gusts: NA
Location:  36.34°N, 92.38°W
Report Text: KBPK 201753Z AUTO 13003KT 4SM BR OVC007 05/03 A3022 RMK AO2 SLP239 T00500033 10050 20017 58007
Loading
Personal Weather Stations






























Interactive Weather Map New forecast layout! Learn more

10-Day Weather Forecast

Advertisements
Track Severe Weather on mobile